Aérodrome :
LOGIN :

S'inscrire | Disclaimer

   EN    FR    IT 

 










Légende :    VFR   VFR Marginal   IFR   IFR Intensif   IFR Très Intensif
Visi : 
Plafond : 
>= 8 km
>= 3000ft
5 à 8 km
1000 à 3000 ft
1500m à 5 km
500 à 1000 ft
800 à 1500m
200 à 500 ft
< 800m
< 200 ft
Symboles :   Orages  Brouillard  Fortes neiges  Fortes précipitations  Vent > 20 kt
SIGMETs :   Divers  Orages  Givrage  Turbulence  Onde Orograph.  Cendres Volcan.







- Altitude de l'aérodrome : 1325 ft
- Code IATA : EBU
- Voir les cartes d'approche


LFMH - St-Etienne Boutheon

DERNIER METAR :
  • 251000Z AUTO 17009KT 150V280 CAVOK 24/12 Q1017 BECMG 34010KT

METARs EXPIRÉS :
  • 250930Z AUTO 18010KT 150V240 CAVOK 23/11 Q1018 BECMG 34010KT
  • 250900Z AUTO 18009KT 130V220 CAVOK 22/10 Q1018 BECMG 34010KT
  • 250830Z AUTO 15009KT 9999 FEW056/// 21/11 Q1018 BECMG 34010KT
  • 250800Z AUTO 16010KT CAVOK 20/10 Q1018 BECMG 36006KT
  • 250730Z AUTO 16006KT 130V190 9999 FEW058 18/10 Q1018 NOSIG

TAF TAF LFMH
Valide du 25 à 09h jusqu'au 26 à 09h UTC


250800Z 2509/2609 VRB02KT 9999 SCT040
BECMG 2509/2512 34010KT
BECMG 2518/2521 BKN040
TEMPO 2604/2608 VRB02KT 5000 BKN010
ATIS : +33 4 77 36 17 51
Pas de NOTAMs connus pour ce terrain.



MET'MAP, la Météo Aéronautique d'un coup d'oeil ! - Copyright ORBIFLY Décembre 2007 - Disclaimer

ORBIFLY MET'MAP TEAM :

Programmation & Développement : Alexandra Zaïnal
Conception & Développement : Baudouin d'Aumeries
Co-Programmation & Développement : Marc-Olivier Méhu
Soutien technique & logistique : Manuel Goepfert

Contact : metmap@orbifly.com




SOURCES & CREDITS :

   NOAA